createdAt,value
2023-05-16T00:00:15.915Z,4.23
2023-05-16T00:02:42.541Z,4.00
2023-05-16T00:05:11.399Z,4.57
2023-05-16T00:07:37.761Z,3.70
2023-05-16T00:10:04.497Z,3.30
2023-05-16T00:12:32.927Z,3.57
2023-05-16T00:14:59.471Z,4.43
2023-05-16T00:17:28.911Z,4.10
2023-05-16T00:19:58.333Z,4.33
2023-05-16T00:22:25.489Z,4.17
2023-05-16T00:24:51.982Z,4.10
2023-05-16T00:27:18.464Z,3.60
2023-05-16T00:29:44.943Z,3.67
2023-05-16T00:32:11.700Z,3.43
2023-05-16T00:34:38.332Z,3.93
2023-05-16T00:37:05.264Z,3.70
2023-05-16T00:39:32.139Z,3.60
2023-05-16T00:41:58.932Z,3.67
2023-05-16T00:44:25.466Z,3.80
2023-05-16T00:46:52.418Z,3.57
2023-05-16T00:49:18.797Z,4.60
2023-05-16T00:51:45.529Z,4.33
2023-05-16T00:54:12.168Z,5.40
2023-05-16T00:56:38.605Z,5.27
2023-05-16T00:59:05.338Z,5.57
2023-05-16T01:01:32.815Z,6.00
2023-05-16T01:04:00.870Z,7.07
2023-05-16T01:06:27.926Z,7.00
2023-05-16T01:08:54.407Z,6.87
2023-05-16T01:11:43.285Z,6.83
2023-05-16T01:14:29.409Z,5.43
2023-05-16T01:17:07.639Z,5.00
2023-05-16T01:19:52.742Z,5.40
2023-05-16T01:22:37.581Z,5.40
2023-05-16T01:25:45.890Z,4.47
2023-05-16T01:28:15.939Z,4.13
2023-05-16T01:30:42.278Z,4.10
2023-05-16T01:33:09.724Z,3.97
2023-05-16T01:35:47.366Z,4.20
2023-05-16T01:38:25.849Z,4.03
2023-05-16T01:41:13.117Z,3.97
2023-05-16T01:43:46.222Z,4.27
2023-05-16T01:46:14.992Z,4.00
2023-05-16T01:48:52.878Z,4.03
2023-05-16T01:51:22.668Z,4.80
2023-05-16T01:53:50.695Z,4.90
2023-05-16T01:56:18.210Z,4.80
2023-05-16T01:58:47.052Z,5.37
2023-05-16T02:01:13.588Z,5.07
2023-05-16T02:03:39.988Z,5.37
2023-05-16T02:06:06.549Z,4.77
2023-05-16T02:08:33.280Z,4.33
2023-05-16T02:10:59.622Z,4.23
2023-05-16T02:13:26.024Z,4.57
2023-05-16T02:15:53.022Z,3.87
2023-05-16T02:18:19.435Z,4.27
2023-05-16T02:20:45.807Z,2.97
2023-05-16T02:23:12.724Z,2.90
2023-05-16T02:25:39.208Z,2.70
2023-05-16T02:28:05.656Z,3.07
2023-05-16T02:30:32.156Z,2.93
2023-05-16T02:32:58.580Z,3.03
2023-05-16T02:35:25.161Z,3.00
2023-05-16T02:37:51.644Z,3.00
2023-05-16T02:40:18.204Z,3.03
2023-05-16T02:42:44.542Z,3.30
2023-05-16T02:45:11.205Z,3.23
2023-05-16T02:47:37.626Z,3.23
2023-05-16T02:50:04.456Z,2.77
2023-05-16T02:52:30.798Z,3.43
2023-05-16T02:55:10.028Z,3.53
2023-05-16T02:57:43.733Z,3.10
2023-05-16T03:00:11.650Z,3.30
2023-05-16T03:02:38.135Z,2.80
2023-05-16T03:05:06.143Z,3.40
2023-05-16T03:07:32.755Z,3.37
2023-05-16T03:09:59.088Z,3.50
2023-05-16T03:12:25.637Z,3.20
2023-05-16T03:14:52.301Z,3.40
2023-05-16T03:17:18.659Z,3.67
2023-05-16T03:19:44.959Z,3.53
2023-05-16T03:22:11.282Z,3.67
2023-05-16T03:24:38.020Z,3.57
2023-05-16T03:27:04.780Z,4.27
2023-05-16T03:29:31.399Z,3.70
2023-05-16T03:31:57.840Z,3.97
2023-05-16T03:34:24.657Z,3.90
2023-05-16T03:36:51.282Z,3.60
2023-05-16T03:39:17.775Z,4.30
2023-05-16T03:41:44.500Z,4.23
2023-05-16T03:44:11.106Z,4.40
2023-05-16T03:46:37.498Z,4.77
2023-05-16T03:49:04.384Z,4.93
2023-05-16T03:51:31.450Z,4.77
2023-05-16T03:53:57.909Z,4.83
2023-05-16T03:56:24.265Z,5.50
2023-05-16T03:58:50.735Z,5.17
2023-05-16T04:01:17.114Z,5.60
2023-05-16T04:03:43.459Z,4.97
2023-05-16T04:06:10.014Z,5.17
2023-05-16T04:08:36.448Z,5.13
2023-05-16T04:11:02.960Z,4.00
2023-05-16T04:13:29.535Z,4.40
2023-05-16T04:15:55.876Z,4.77
2023-05-16T04:18:22.217Z,4.00
2023-05-16T04:20:48.768Z,3.90
2023-05-16T04:23:15.089Z,4.17
2023-05-16T04:25:42.357Z,3.93
2023-05-16T04:28:09.046Z,3.87
2023-05-16T04:30:35.399Z,4.53
2023-05-16T04:33:01.927Z,4.07
2023-05-16T04:35:28.614Z,4.37
2023-05-16T04:37:55.879Z,4.07
2023-05-16T04:40:22.385Z,4.23
2023-05-16T04:42:48.866Z,4.10
2023-05-16T04:45:15.350Z,4.77
2023-05-16T04:47:42.275Z,4.57
2023-05-16T04:50:09.259Z,4.30
2023-05-16T04:52:35.775Z,3.97
2023-05-16T04:55:02.298Z,3.83
2023-05-16T04:57:28.844Z,3.90
2023-05-16T04:59:55.226Z,3.70
2023-05-16T05:02:21.664Z,3.90
2023-05-16T05:04:48.205Z,4.73
2023-05-16T05:07:14.604Z,3.77
2023-05-16T05:09:42.523Z,3.93
2023-05-16T05:12:09.471Z,3.43
2023-05-16T05:14:35.771Z,3.87
2023-05-16T05:17:02.127Z,3.90
2023-05-16T05:19:28.748Z,3.50
2023-05-16T05:21:55.380Z,3.50
2023-05-16T05:24:21.749Z,5.13
2023-05-16T05:26:48.259Z,3.90
2023-05-16T05:29:14.642Z,4.40
2023-05-16T05:31:41.252Z,3.90
2023-05-16T05:34:07.833Z,2.90
2023-05-16T05:36:34.309Z,3.47
2023-05-16T05:39:01.780Z,3.23
2023-05-16T05:41:28.334Z,3.77
2023-05-16T05:43:54.766Z,3.87
2023-05-16T05:46:21.368Z,4.67
2023-05-16T05:48:48.087Z,3.70
2023-05-16T05:51:14.528Z,4.17
2023-05-16T05:53:41.594Z,4.07
2023-05-16T05:56:08.075Z,4.33
2023-05-16T05:58:34.606Z,3.70
2023-05-16T06:01:01.013Z,4.20
2023-05-16T06:03:27.427Z,4.00
2023-05-16T06:05:53.828Z,3.87
2023-05-16T06:08:20.199Z,3.70
2023-05-16T06:10:47.723Z,3.30
2023-05-16T06:13:14.082Z,4.13
2023-05-16T06:15:40.703Z,3.90
2023-05-16T06:18:07.284Z,3.67
2023-05-16T06:20:33.695Z,3.57
2023-05-16T06:23:00.056Z,3.80
2023-05-16T06:25:26.741Z,3.73
2023-05-16T06:27:53.460Z,3.60
2023-05-16T06:30:19.867Z,3.30
2023-05-16T06:32:46.420Z,3.37
2023-05-16T06:35:12.779Z,4.00
2023-05-16T06:37:41.092Z,3.40
2023-05-16T06:40:09.393Z,3.20
2023-05-16T06:42:35.747Z,3.43
2023-05-16T06:45:02.208Z,3.63
2023-05-16T06:47:28.872Z,2.73
2023-05-16T06:49:55.348Z,2.73
2023-05-16T06:52:22.052Z,3.40
2023-05-16T06:54:48.684Z,3.37
2023-05-16T06:57:15.180Z,2.60
2023-05-16T06:59:41.635Z,2.47
2023-05-16T07:02:08.181Z,3.53
2023-05-16T07:04:36.539Z,3.60
2023-05-16T07:07:02.983Z,2.33
2023-05-16T07:09:29.455Z,2.80
2023-05-16T07:11:55.919Z,2.93
2023-05-16T07:14:22.382Z,2.50
2023-05-16T07:16:49.138Z,2.40
2023-05-16T07:19:15.602Z,2.50
2023-05-16T07:21:42.228Z,2.23
2023-05-16T07:24:08.671Z,2.33
2023-05-16T07:26:35.043Z,2.47
2023-05-16T07:29:02.835Z,2.93
2023-05-16T07:31:29.426Z,2.50
2023-05-16T07:33:55.790Z,2.43
2023-05-16T07:36:22.538Z,2.13
2023-05-16T07:38:49.028Z,2.53
2023-05-16T07:41:15.525Z,2.93
2023-05-16T07:43:41.937Z,2.03
2023-05-16T07:46:08.550Z,2.50
2023-05-16T07:48:35.008Z,2.60
2023-05-16T07:51:01.434Z,1.83
2023-05-16T07:53:27.972Z,2.80
2023-05-16T07:55:54.325Z,2.80
2023-05-16T07:58:20.755Z,2.23
2023-05-16T08:00:47.471Z,2.43
2023-05-16T08:03:14.068Z,2.20
2023-05-16T08:05:40.653Z,2.10
2023-05-16T08:08:07.170Z,1.90
2023-05-16T08:10:33.647Z,2.33
2023-05-16T08:13:00.060Z,2.03
2023-05-16T08:15:27.976Z,2.07
2023-05-16T08:17:59.016Z,1.90
2023-05-16T08:20:26.152Z,1.83
2023-05-16T08:22:52.715Z,1.77
2023-05-16T08:25:19.271Z,1.47
2023-05-16T08:27:46.887Z,2.53
2023-05-16T08:30:14.357Z,1.83
2023-05-16T08:32:40.991Z,2.30
2023-05-16T08:35:07.933Z,1.90
2023-05-16T08:37:35.077Z,1.90
2023-05-16T08:40:01.532Z,2.00
2023-05-16T08:42:27.966Z,2.03
2023-05-16T08:44:54.907Z,1.97
2023-05-16T08:47:24.839Z,1.73
2023-05-16T08:49:52.273Z,1.73
2023-05-16T08:52:20.835Z,1.67
2023-05-16T08:54:55.277Z,1.60
2023-05-16T08:57:33.942Z,2.70
2023-05-16T09:00:00.818Z,2.10
2023-05-16T09:02:28.863Z,1.80
2023-05-16T09:04:57.385Z,2.00
2023-05-16T09:07:23.831Z,1.50
2023-05-16T09:09:50.383Z,1.53
2023-05-16T09:12:16.791Z,1.40
2023-05-16T09:14:43.590Z,1.90
2023-05-16T09:17:12.779Z,1.80
2023-05-16T09:19:40.879Z,1.47
2023-05-16T09:22:10.199Z,1.70
2023-05-16T09:24:44.385Z,1.70
2023-05-16T09:27:16.228Z,1.87
2023-05-16T09:29:44.482Z,1.93
2023-05-16T09:32:12.965Z,1.60
2023-05-16T09:34:43.483Z,1.80
2023-05-16T09:37:13.599Z,1.73
2023-05-16T09:40:07.209Z,1.63
2023-05-16T09:42:33.604Z,1.70
2023-05-16T09:45:01.595Z,1.57
2023-05-16T09:47:28.847Z,1.70
2023-05-16T09:49:56.488Z,1.70
2023-05-16T09:52:26.534Z,1.60
2023-05-16T09:54:54.743Z,1.57
2023-05-16T09:57:21.982Z,1.63
2023-05-16T09:59:48.504Z,1.53
2023-05-16T10:02:16.301Z,1.70
2023-05-16T10:04:42.865Z,1.70
2023-05-16T10:07:10.098Z,1.60
2023-05-16T10:09:39.435Z,1.70
2023-05-16T10:12:08.552Z,1.83
2023-05-16T10:14:41.211Z,1.70
2023-05-16T10:17:11.267Z,1.83
2023-05-16T10:19:39.397Z,1.97
2023-05-16T10:22:07.476Z,1.83
2023-05-16T10:25:12.705Z,1.80
2023-05-16T10:27:40.253Z,2.07
2023-05-16T10:30:08.273Z,1.90
2023-05-16T10:32:35.416Z,1.60
2023-05-16T10:35:03.623Z,1.53
2023-05-16T10:37:31.866Z,1.80
2023-05-16T10:40:01.207Z,1.70
2023-05-16T10:42:27.754Z,2.03
2023-05-16T10:45:04.818Z,1.97
2023-05-16T10:47:32.921Z,2.03
2023-05-16T10:49:59.380Z,1.83
2023-05-16T10:52:34.089Z,1.47
2023-05-16T10:55:03.729Z,1.40
2023-05-16T10:57:33.277Z,1.67
2023-05-16T11:00:01.697Z,1.80
2023-05-16T11:02:33.842Z,1.50
2023-05-16T11:05:02.673Z,1.80
2023-05-16T11:07:37.033Z,2.00
2023-05-16T11:10:09.005Z,1.37
2023-05-16T11:12:48.054Z,1.63
2023-05-16T11:15:20.334Z,1.43
2023-05-16T11:17:47.122Z,2.20
2023-05-16T11:20:30.237Z,1.47
2023-05-16T11:23:16.625Z,1.50
2023-05-16T11:25:45.824Z,1.60
2023-05-16T11:28:14.384Z,1.50
2023-05-16T11:30:45.783Z,1.80
2023-05-16T11:33:13.404Z,1.60
2023-05-16T11:35:40.066Z,1.50
2023-05-16T11:38:06.611Z,1.50
2023-05-16T11:40:33.070Z,1.60
2023-05-16T11:43:03.835Z,1.50
2023-05-16T11:45:31.705Z,1.67
2023-05-16T11:48:04.978Z,1.63
2023-05-16T11:50:34.311Z,1.80
2023-05-16T11:53:01.584Z,1.67
2023-05-16T11:55:41.265Z,1.40
2023-05-16T11:58:09.539Z,1.80
2023-05-16T12:00:36.562Z,1.77
2023-05-16T12:03:04.579Z,1.60
2023-05-16T12:05:33.004Z,2.17
2023-05-16T12:07:59.933Z,1.80
2023-05-16T12:10:27.025Z,2.20
2023-05-16T12:12:54.662Z,1.80
2023-05-16T12:15:21.595Z,2.30
2023-05-16T12:17:48.626Z,2.10
2023-05-16T12:20:16.303Z,2.20
2023-05-16T12:22:46.611Z,1.70
2023-05-16T12:25:32.179Z,1.53
2023-05-16T12:28:03.443Z,1.90
2023-05-16T12:30:32.462Z,2.13
2023-05-16T12:33:07.709Z,2.13
2023-05-16T12:35:35.363Z,1.90
2023-05-16T12:38:06.022Z,1.47
2023-05-16T12:40:32.549Z,1.57
2023-05-16T12:42:59.797Z,1.67
2023-05-16T12:45:29.218Z,2.13
2023-05-16T12:47:55.914Z,1.47
2023-05-16T12:50:23.092Z,1.60
2023-05-16T12:52:51.515Z,2.07
2023-05-16T12:55:19.522Z,2.07
2023-05-16T12:57:49.854Z,1.70
2023-05-16T13:00:19.034Z,1.90
2023-05-16T13:02:46.493Z,2.20
2023-05-16T13:05:13.453Z,1.80
2023-05-16T13:07:40.869Z,1.63
2023-05-16T13:10:12.034Z,1.73
2023-05-16T13:12:39.890Z,2.10
2023-05-16T13:15:07.865Z,1.60
2023-05-16T13:17:38.915Z,1.83
2023-05-16T13:20:10.120Z,1.77
2023-05-16T13:22:37.289Z,1.83
2023-05-16T13:25:07.170Z,2.13
2023-05-16T13:27:34.057Z,1.80
2023-05-16T13:30:00.834Z,1.73
2023-05-16T13:32:27.461Z,1.50
2023-05-16T13:34:54.377Z,1.30
2023-05-16T13:37:20.859Z,1.50
2023-05-16T13:39:47.274Z,1.27
2023-05-16T13:42:13.748Z,1.50
2023-05-16T13:44:40.208Z,1.43
2023-05-16T13:47:06.849Z,1.20
2023-05-16T13:49:33.264Z,1.40
2023-05-16T13:52:01.442Z,1.60
2023-05-16T13:54:28.006Z,1.60
2023-05-16T13:56:54.422Z,1.20
2023-05-16T13:59:37.658Z,1.50
2023-05-16T14:02:07.550Z,1.70
2023-05-16T14:04:34.032Z,1.70
2023-05-16T14:07:00.430Z,1.10
2023-05-16T14:09:26.887Z,1.63
2023-05-16T14:11:53.301Z,1.47
2023-05-16T14:14:19.689Z,1.50
2023-05-16T14:16:46.613Z,1.60
2023-05-16T14:19:15.341Z,1.63
2023-05-16T14:21:43.126Z,1.30
2023-05-16T14:24:09.741Z,1.37
2023-05-16T14:26:36.200Z,1.37
2023-05-16T14:29:02.621Z,1.20
2023-05-16T14:31:29.947Z,1.47
2023-05-16T14:33:56.421Z,1.40
2023-05-16T14:36:22.858Z,1.53
2023-05-16T14:38:49.325Z,1.53
2023-05-16T14:41:16.317Z,1.13
2023-05-16T14:43:42.723Z,1.20
2023-05-16T14:46:09.299Z,1.40
2023-05-16T14:48:35.850Z,1.57
2023-05-16T14:51:02.264Z,1.73
2023-05-16T14:53:28.758Z,1.13
2023-05-16T14:55:55.135Z,1.50
2023-05-16T14:58:21.708Z,1.57
2023-05-16T15:00:48.151Z,1.50
2023-05-16T15:03:19.276Z,1.60
2023-05-16T15:05:45.876Z,1.50
2023-05-16T15:08:12.324Z,1.40
2023-05-16T15:10:38.858Z,1.67
2023-05-16T15:13:05.339Z,1.80
2023-05-16T15:15:32.978Z,1.87
2023-05-16T15:17:59.438Z,1.50
2023-05-16T15:20:26.388Z,1.70
2023-05-16T15:22:53.136Z,1.50
2023-05-16T15:25:19.650Z,1.80
2023-05-16T15:27:46.042Z,1.80
2023-05-16T15:30:12.820Z,1.90
2023-05-16T15:32:39.279Z,1.90
2023-05-16T15:35:06.155Z,1.60
2023-05-16T15:37:32.834Z,2.37
2023-05-16T15:39:59.344Z,1.50
2023-05-16T15:42:25.786Z,1.97
2023-05-16T15:44:52.135Z,1.63
2023-05-16T15:47:18.630Z,2.30
2023-05-16T15:49:45.062Z,1.70
2023-05-16T15:52:11.538Z,1.80
2023-05-16T15:54:38.063Z,2.40
2023-05-16T15:57:04.751Z,2.07
2023-05-16T15:59:31.242Z,1.83
2023-05-16T16:01:57.778Z,2.10
2023-05-16T16:04:24.221Z,2.00
2023-05-16T16:06:50.722Z,2.10
2023-05-16T16:09:17.484Z,1.83
2023-05-16T16:11:43.988Z,2.30
2023-05-16T16:14:11.212Z,2.30
2023-05-16T16:16:40.403Z,2.00
2023-05-16T16:19:07.866Z,2.47
2023-05-16T16:21:34.601Z,2.00
2023-05-16T16:24:01.287Z,2.27
2023-05-16T16:26:27.686Z,1.87
2023-05-16T16:28:54.214Z,2.87
2023-05-16T16:31:20.814Z,2.30
2023-05-16T16:33:49.100Z,2.13
2023-05-16T16:36:16.837Z,1.80
2023-05-16T16:38:43.366Z,1.83
2023-05-16T16:41:09.977Z,2.07
2023-05-16T16:43:39.871Z,2.30
2023-05-16T16:46:07.501Z,2.00
2023-05-16T16:48:34.652Z,2.13
2023-05-16T16:51:01.978Z,2.03
2023-05-16T16:53:28.547Z,2.60
2023-05-16T16:55:55.009Z,2.33
2023-05-16T16:58:21.931Z,2.10
2023-05-16T17:00:48.553Z,2.00
2023-05-16T17:03:15.073Z,2.10
2023-05-16T17:05:42.472Z,2.27
2023-05-16T17:08:08.988Z,2.03
2023-05-16T17:10:35.487Z,2.53
2023-05-16T17:13:09.972Z,2.23
2023-05-16T17:15:37.571Z,2.30
2023-05-16T17:18:07.492Z,2.10
2023-05-16T17:20:35.273Z,2.50
2023-05-16T17:23:02.463Z,2.13
2023-05-16T17:25:29.402Z,2.03
2023-05-16T17:27:56.270Z,2.20
2023-05-16T17:30:23.384Z,1.77
2023-05-16T17:32:49.857Z,2.20
2023-05-16T17:35:16.401Z,2.47
2023-05-16T17:37:42.967Z,1.90
2023-05-16T17:40:11.998Z,2.33
2023-05-16T17:42:38.529Z,1.87
2023-05-16T17:45:07.101Z,2.10
2023-05-16T17:47:33.594Z,1.90
2023-05-16T17:50:00.040Z,2.00
2023-05-16T17:52:26.727Z,1.70
2023-05-16T17:54:53.077Z,2.03
2023-05-16T17:57:19.828Z,2.40
2023-05-16T17:59:46.282Z,2.13
2023-05-16T18:02:15.454Z,2.37
2023-05-16T18:04:42.275Z,2.13
2023-05-16T18:07:08.697Z,2.87
2023-05-16T18:09:35.695Z,2.20
2023-05-16T18:12:02.281Z,2.33
2023-05-16T18:14:28.727Z,2.30
2023-05-16T18:16:55.188Z,2.47
2023-05-16T18:19:21.693Z,2.67
2023-05-16T18:21:48.204Z,2.37
2023-05-16T18:24:15.911Z,2.53
2023-05-16T18:26:44.370Z,2.70
2023-05-16T18:29:11.216Z,2.60
2023-05-16T18:31:40.618Z,2.53
2023-05-16T18:34:07.260Z,2.43
2023-05-16T18:36:33.696Z,2.53
2023-05-16T18:39:00.245Z,2.60
2023-05-16T18:41:27.271Z,2.80
2023-05-16T18:43:53.719Z,3.00
2023-05-16T18:46:20.538Z,2.70
2023-05-16T18:48:47.145Z,2.60
2023-05-16T18:51:13.582Z,2.57
2023-05-16T18:53:40.029Z,2.80
2023-05-16T18:56:06.681Z,2.93
2023-05-16T18:58:33.104Z,2.70
2023-05-16T19:00:59.561Z,2.27
2023-05-16T19:03:29.449Z,2.50
2023-05-16T19:05:56.066Z,3.10
2023-05-16T19:08:25.541Z,2.50
2023-05-16T19:10:54.197Z,3.13
2023-05-16T19:13:21.613Z,2.93
2023-05-16T19:15:48.069Z,4.07
2023-05-16T19:18:14.572Z,5.90
2023-05-16T19:20:42.171Z,2.43
2023-05-16T19:23:10.383Z,2.20
2023-05-16T19:25:36.772Z,2.37
2023-05-16T19:28:03.289Z,2.30
2023-05-16T19:30:29.898Z,2.57
2023-05-16T19:32:56.630Z,2.60
2023-05-16T19:35:23.300Z,2.50
2023-05-16T19:37:49.748Z,2.80
2023-05-16T19:40:17.384Z,2.83
2023-05-16T19:42:44.072Z,2.07
2023-05-16T19:45:10.887Z,2.73
2023-05-16T19:47:37.363Z,2.47
2023-05-16T19:50:04.194Z,2.20
2023-05-16T19:52:30.582Z,1.93
2023-05-16T19:54:57.036Z,2.00
2023-05-16T19:57:23.626Z,2.37
2023-05-16T19:59:50.003Z,2.57
2023-05-16T20:02:17.711Z,2.20
2023-05-16T20:04:45.538Z,2.40
2023-05-16T20:07:12.028Z,2.90
2023-05-16T20:09:38.612Z,2.50
2023-05-16T20:12:05.550Z,2.47
2023-05-16T20:14:31.999Z,2.57
2023-05-16T20:16:58.736Z,2.40
2023-05-16T20:19:25.402Z,2.43
2023-05-16T20:21:51.892Z,2.30
2023-05-16T20:24:18.373Z,2.57
2023-05-16T20:26:44.812Z,2.60
2023-05-16T20:29:11.288Z,2.57
2023-05-16T20:31:37.770Z,2.67
2023-05-16T20:34:04.409Z,2.53
2023-05-16T20:36:30.991Z,2.80
2023-05-16T20:38:57.419Z,3.03
2023-05-16T20:41:23.838Z,2.77
2023-05-16T20:43:51.006Z,2.23
2023-05-16T20:46:17.411Z,2.23
2023-05-16T20:48:43.886Z,2.40
2023-05-16T20:51:10.432Z,2.60
2023-05-16T20:53:36.773Z,2.20
2023-05-16T20:56:03.532Z,2.43
2023-05-16T20:58:29.979Z,2.63
2023-05-16T21:00:56.390Z,2.93
2023-05-16T21:03:22.918Z,2.63
2023-05-16T21:05:49.433Z,2.40
2023-05-16T21:08:15.789Z,2.53
2023-05-16T21:10:42.284Z,2.47
2023-05-16T21:13:08.651Z,2.53
2023-05-16T21:15:35.063Z,2.63
2023-05-16T21:18:01.682Z,2.57
2023-05-16T21:20:29.975Z,2.17
2023-05-16T21:22:56.391Z,2.50
2023-05-16T21:25:22.919Z,2.37
2023-05-16T21:27:49.345Z,2.30
2023-05-16T21:30:15.881Z,2.50
2023-05-16T21:32:42.319Z,2.13
2023-05-16T21:35:08.963Z,2.63
2023-05-16T21:37:35.499Z,2.17
2023-05-16T21:40:02.183Z,1.90
2023-05-16T21:42:28.582Z,2.80
2023-05-16T21:44:54.959Z,2.73
2023-05-16T21:47:21.602Z,2.27
2023-05-16T21:49:48.055Z,4.83
2023-05-16T21:52:14.493Z,3.10
2023-05-16T21:54:40.850Z,2.30
2023-05-16T21:57:07.300Z,3.33
2023-05-16T21:59:33.706Z,2.37
2023-05-16T22:02:00.151Z,2.13
2023-05-16T22:04:26.974Z,2.60
2023-05-16T22:06:53.493Z,2.27
2023-05-16T22:09:19.894Z,2.50
2023-05-16T22:11:46.266Z,2.40
2023-05-16T22:14:12.782Z,2.60
2023-05-16T22:16:39.397Z,2.50
2023-05-16T22:19:06.642Z,2.30
2023-05-16T22:21:33.077Z,3.67
2023-05-16T22:23:59.528Z,2.60
2023-05-16T22:26:26.067Z,2.47
2023-05-16T22:28:53.298Z,2.60
2023-05-16T22:31:19.683Z,2.30
2023-05-16T22:33:46.159Z,2.60
2023-05-16T22:36:12.628Z,2.27
2023-05-16T22:38:39.053Z,2.60
2023-05-16T22:41:05.464Z,2.20
2023-05-16T22:43:31.969Z,2.23
2023-05-16T22:45:59.043Z,2.07
2023-05-16T22:48:26.689Z,2.50
2023-05-16T22:50:53.195Z,2.20
2023-05-16T22:53:19.552Z,2.40
2023-05-16T22:55:46.219Z,2.37
2023-05-16T22:58:12.694Z,2.33
2023-05-16T23:00:39.144Z,2.37
2023-05-16T23:03:06.216Z,2.33
2023-05-16T23:05:32.897Z,2.20
2023-05-16T23:07:59.334Z,3.30
2023-05-16T23:10:25.721Z,3.13
2023-05-16T23:12:52.193Z,2.57
2023-05-16T23:15:18.545Z,2.37
2023-05-16T23:17:45.004Z,2.40
2023-05-16T23:20:11.812Z,2.57
2023-05-16T23:22:38.196Z,2.60
2023-05-16T23:25:05.728Z,2.03
2023-05-16T23:27:32.186Z,2.80
2023-05-16T23:29:58.663Z,2.30
2023-05-16T23:32:25.110Z,2.40
2023-05-16T23:34:51.691Z,1.77
2023-05-16T23:37:18.090Z,2.20
2023-05-16T23:39:44.500Z,2.23
2023-05-16T23:42:11.016Z,2.20
2023-05-16T23:44:39.569Z,2.30
2023-05-16T23:47:06.458Z,2.73
2023-05-16T23:49:32.958Z,2.23
2023-05-16T23:51:59.459Z,2.23
2023-05-16T23:54:26.432Z,2.73
2023-05-16T23:56:53.055Z,2.43
2023-05-16T23:59:19.581Z,2.20
